This is the latest recevied weather packets stored in our database for station/object AB0TJ. If no packets are shown the sender has not sent any weather packets the latest 10 day(s).
| Time | Temp. | Humidity | Pressure | Rain* | Wind** | Luminosity | Snow |
|---|---|---|---|---|---|---|---|
| 1778037033 | 14.44° C | 43% | 1007.8 hPa | 0 mm | - | 0 W/m² | - |
| 1778036469 | 14.44° C | 43% | 1007.7 hPa | 0 mm | - | 0 W/m² | - |
| 1778035912 | 14.44° C | 42% | 1007.6 hPa | 0 mm | - | 0 W/m² | - |
| 1778035429 | 14.44° C | 42% | 1007.7 hPa | 0 mm | - | 0 W/m² | - |
| 1778034859 | 14.44° C | 42% | 1007.3 hPa | 0 mm | - | 0 W/m² | - |
| 1778034349 | 15° C | 42% | 1007.5 hPa | 0 mm | - | 0 W/m² | - |
| 1778033753 | 15° C | 41% | 1007.2 hPa | 0 mm | - | 1 W/m² | - |
| 1778033233 | 15° C | 40% | 1007.2 hPa | 0 mm | - | 3 W/m² | - |
| 1778032733 | 15.56° C | 39% | 1007 hPa | 0 mm | - | 5 W/m² | - |
| 1778032149 | 15.56° C | 37% | 1006.7 hPa | 0 mm | - | 10 W/m² | - |
| 1778031593 | 16.11° C | 37% | 1006.5 hPa | 0 mm | - | 17 W/m² | - |
| 1778031092 | 16.11° C | 37% | 1006.3 hPa | 0 mm | - | 30 W/m² | - |
| 1778030499 | 16.67° C | 35% | 1006 hPa | 0 mm | - | 39 W/m² | - |
| 1778029953 | 16.67° C | 34% | 1006 hPa | 0 mm | - | 44 W/m² | - |
| 1778029409 | 17.22° C | 34% | 1005.5 hPa | 0 mm | - | 71 W/m² | - |
| 1778028884 | 17.78° C | 34% | 1005.5 hPa | 0 mm | - | 72 W/m² | - |
| 1778028333 | 18.33° C | 33% | 1005.2 hPa | 0 mm | - | 72 W/m² | - |
| 1778027792 | 18.89° C | 28% | 1005 hPa | 0 mm | - | 81 W/m² | - |
| 1778027269 | 18.89° C | 29% | 1004.8 hPa | 0 mm | - | 93 W/m² | - |
| 1778026779 | 18.89° C | 29% | 1004.5 hPa | 0 mm | - | 98 W/m² | - |
| 1778026293 | 19.44° C | 28% | 1004.4 hPa | 0 mm | - | 122 W/m² | - |
| 1778025773 | 20.56° C | 26% | 1004.5 hPa | 0 mm | - | 147 W/m² | - |
| 1778025272 | 21.67° C | 22% | 1004.1 hPa | 0 mm | - | 185 W/m² | - |
| 1778024789 | 22.22° C | 11% | 1004 hPa | 0 mm | - | 186 W/m² | - |
| 1778024274 | 22.78° C | 11% | 1003.9 hPa | 0 mm | - | 174 W/m² | - |
* Rain latest hour (hover to see other rain measurements)
** Current wind speed in m/s (hover to see current wind gust speed)